Time;durP1;ratioP1;P1;durP2;ratioP2;P2;SDS_P1;SDS_P2;PMS_P1;PMS_P2;Temp;Humidity;BMP_temperature;BMP_pressure;BME280_temperature;BME280_humidity;BME280_pressure;Samples;Min_cycle;Max_cycle;Signal;HPM_P1;HPM_P2
2022/09/17 00:01:04;;;;;;;6.73;2.50;;;11.50;99.90;;;;;;4937148;29;20198;-79
2022/09/17 00:03:33;;;;;;;11.97;2.80;;;11.60;99.90;;;;;;4936770;28;20584;-79
2022/09/17 00:06:01;;;;;;;8.57;2.67;;;11.80;99.90;;;;;;4936679;29;20197;-79
2022/09/17 00:08:29;;;;;;;8.23;2.17;;;11.80;99.90;;;;;;4937465;29;20202;-78
2022/09/17 00:10:56;;;;;;;6.70;2.73;;;11.70;99.90;;;;;;4935811;28;20225;-79
2022/09/17 00:13:25;;;;;;;6.13;2.47;;;11.60;99.90;;;;;;4947392;28;20216;-79
2022/09/17 00:15:53;;;;;;;7.30;2.57;;;11.60;99.90;;;;;;4936887;29;20237;-79
2022/09/17 00:18:20;;;;;;;11.50;3.17;;;11.60;99.90;;;;;;4935689;29;20201;-79
2022/09/17 00:20:48;;;;;;;8.60;3.43;;;11.50;99.90;;;;;;4949482;28;20233;-78
2022/09/17 00:23:15;;;;;;;11.27;3.10;;;11.50;99.90;;;;;;4942275;29;20282;-78
2022/09/17 00:25:45;;;;;;;9.97;3.60;;;11.70;99.90;;;;;;4935569;29;20201;-78
2022/09/17 00:28:14;;;;;;;7.13;4.17;;;11.60;99.90;;;;;;4934791;28;20205;-79
2022/09/17 00:30:45;;;;;;;12.07;4.40;;;11.60;99.90;;;;;;4937942;28;20611;-78
2022/09/17 00:33:13;;;;;;;12.03;4.60;;;11.50;99.90;;;;;;4930337;29;20677;-78
2022/09/17 00:35:41;;;;;;;9.87;4.87;;;11.40;99.90;;;;;;4954611;28;20210;-78
2022/09/17 00:38:09;;;;;;;10.23;4.50;;;11.30;99.90;;;;;;4941007;29;20198;-79
2022/09/17 00:40:39;;;;;;;12.43;5.20;;;11.30;99.90;;;;;;4947210;28;20244;-78
2022/09/17 00:43:11;;;;;;;13.33;5.17;;;11.40;99.90;;;;;;4929031;29;20201;-79
2022/09/17 00:45:39;;;;;;;13.03;5.30;;;11.40;99.90;;;;;;4955739;28;20194;-79
2022/09/17 00:48:11;;;;;;;12.80;4.70;;;11.40;99.90;;;;;;4937878;29;20195;-79
2022/09/17 00:50:42;;;;;;;11.30;5.00;;;11.40;99.90;;;;;;4939787;28;20217;-79
2022/09/17 00:53:14;;;;;;;13.03;5.00;;;11.50;99.90;;;;;;4936022;29;20202;-79
2022/09/17 00:55:45;;;;;;;10.13;4.17;;;11.50;99.90;;;;;;4957153;28;20237;-79
2022/09/17 00:58:16;;;;;;;11.13;4.13;;;11.40;99.90;;;;;;4936923;29;20202;-79
2022/09/17 01:00:46;;;;;;;8.67;3.93;;;11.50;99.90;;;;;;4939910;29;20705;-79
2022/09/17 01:03:15;;;;;;;9.90;4.43;;;11.50;99.90;;;;;;4936099;29;20206;-79
2022/09/17 01:05:47;;;;;;;9.77;4.33;;;11.60;99.90;;;;;;4960905;28;20197;-78
2022/09/17 01:08:25;;;;;;;9.97;4.07;;;11.70;99.90;;;;;;4936495;29;20206;-78
2022/09/17 01:11:11;;;;;;;10.40;3.33;;;11.80;99.90;;;;;;4945722;28;20225;-78
2022/09/17 01:13:49;;;;;;;8.63;3.87;;;11.80;99.90;;;;;;4936455;29;20685;-78
2022/09/17 01:16:33;;;;;;;10.30;4.70;;;11.70;99.90;;;;;;4936636;28;20224;-78
2022/09/17 01:19:21;;;;;;;10.60;3.67;;;11.70;99.90;;;;;;4935229;29;20221;-78
2022/09/17 01:21:59;;;;;;;7.23;3.43;;;11.50;99.90;;;;;;4942508;28;20198;-78
2022/09/17 01:25:00;;;;;;;7.53;2.90;;;11.40;99.90;;;;;;4935396;28;20565;-78
2022/09/17 01:28:07;;;;;;;9.97;3.20;;;11.50;99.90;;;;;;4936745;29;20572;-78
2022/09/17 01:31:01;;;;;;;7.87;3.03;;;11.60;99.90;;;;;;4950591;28;20225;-78
2022/09/17 01:33:38;;;;;;;9.80;3.23;;;11.70;99.90;;;;;;4939233;29;20217;-79
2022/09/17 01:36:30;;;;;;;8.50;3.43;;;11.60;99.90;;;;;;4940865;28;20237;-79
2022/09/17 01:39:06;;;;;;;7.33;2.93;;;11.70;99.90;;;;;;4937973;29;20693;-78
2022/09/17 01:41:41;;;;;;;8.10;2.97;;;11.80;99.90;;;;;;4939971;29;20205;-78
2022/09/17 01:44:16;;;;;;;6.27;2.50;;;11.70;99.90;;;;;;4938348;29;20711;-78
2022/09/17 01:46:49;;;;;;;7.37;2.57;;;11.80;99.90;;;;;;4939430;29;20197;-79
2022/09/17 01:49:17;;;;;;;6.90;2.63;;;11.70;99.90;;;;;;4939303;29;20226;-78
2022/09/17 01:51:48;;;;;;;9.30;3.10;;;11.70;99.90;;;;;;4939417;29;20202;-78
2022/09/17 01:54:20;;;;;;;8.37;3.00;;;11.70;99.90;;;;;;4939092;29;20205;-78
2022/09/17 01:56:53;;;;;;;11.43;3.10;;;11.50;99.90;;;;;;4943381;28;20212;-78
2022/09/17 01:59:24;;;;;;;7.60;2.90;;;11.50;99.90;;;;;;4943554;29;20221;-78
2022/09/17 02:01:58;;;;;;;10.30;3.50;;;11.40;99.90;;;;;;4941250;28;20208;-78
2022/09/17 02:04:30;;;;;;;8.70;3.13;;;11.30;99.90;;;;;;4938052;28;20194;-78
2022/09/17 02:07:03;;;;;;;12.60;3.63;;;11.40;99.90;;;;;;4937915;28;20202;-78
2022/09/17 02:09:36;;;;;;;9.73;3.00;;;11.50;99.90;;;;;;4951806;29;20232;-78
2022/09/17 02:12:11;;;;;;;8.97;3.43;;;11.60;99.90;;;;;;4952433;28;20549;-77
2022/09/17 02:14:43;;;;;;;11.03;3.50;;;11.40;99.90;;;;;;4951290;29;20201;-77
2022/09/17 02:17:20;;;;;;;10.37;3.77;;;11.40;99.90;;;;;;4939625;29;20222;-77
2022/09/17 02:19:48;;;;;;;8.07;2.93;;;11.50;99.90;;;;;;4940512;28;20224;-77
2022/09/17 02:22:24;;;;;;;9.50;3.53;;;11.40;99.90;;;;;;4938293;29;20197;-78
2022/09/17 02:25:02;;;;;;;8.83;3.20;;;11.50;99.90;;;;;;4941131;28;20204;-77
2022/09/17 02:27:37;;;;;;;7.87;3.27;;;11.50;99.90;;;;;;4939296;29;20228;-77
2022/09/17 02:30:06;;;;;;;11.23;3.17;;;11.50;99.90;;;;;;4941257;29;20220;-77
2022/09/17 02:32:35;;;;;;;10.97;3.20;;;11.50;99.90;;;;;;4938759;29;20205;-77
2022/09/17 02:35:02;;;;;;;6.43;2.50;;;11.60;99.90;;;;;;4936128;29;20213;-77
2022/09/17 02:37:30;;;;;;;8.73;3.23;;;11.70;99.90;;;;;;4937594;29;20217;-78
2022/09/17 02:39:57;;;;;;;10.57;3.17;;;11.50;99.90;;;;;;4942959;28;20233;-77
2022/09/17 02:42:33;;;;;;;9.83;3.03;;;11.60;99.90;;;;;;4943522;29;20201;-77
2022/09/17 02:45:07;;;;;;;6.63;2.67;;;11.60;99.90;;;;;;4940446;28;20205;-77
2022/09/17 02:48:02;;;;;;;6.77;2.70;;;11.60;99.90;;;;;;4938513;29;20197;-77
2022/09/17 02:50:51;;;;;;;10.63;3.27;;;11.50;99.90;;;;;;4940258;29;20232;-77
2022/09/17 02:53:31;;;;;;;10.03;3.00;;;11.50;99.90;;;;;;4935933;28;20212;-77
2022/09/17 02:56:07;;;;;;;9.30;3.00;;;11.40;99.90;;;;;;4940561;28;20691;-77
2022/09/17 02:58:41;;;;;;;9.93;2.97;;;11.40;99.90;;;;;;4940547;29;20654;-77
2022/09/17 03:01:14;;;;;;;8.23;2.77;;;11.50;99.90;;;;;;4932816;28;20213;-78
2022/09/17 03:03:45;;;;;;;10.07;3.23;;;11.60;99.90;;;;;;4939848;28;20194;-77
2022/09/17 03:06:13;;;;;;;7.80;3.17;;;11.70;99.90;;;;;;4944844;28;20190;-77
2022/09/17 03:08:42;;;;;;;11.77;3.90;;;11.80;99.90;;;;;;4936979;28;20538;-79
2022/09/17 03:11:11;;;;;;;9.80;2.87;;;11.80;99.90;;;;;;4937090;29;20670;-77
2022/09/17 03:13:39;;;;;;;5.33;2.50;;;11.90;99.90;;;;;;4937701;28;20198;-78
2022/09/17 03:16:07;;;;;;;9.37;3.17;;;11.90;99.90;;;;;;4940313;29;20240;-78
2022/09/17 03:18:34;;;;;;;9.13;3.07;;;11.90;99.90;;;;;;4938213;29;20213;-77
2022/09/17 03:21:03;;;;;;;8.40;2.70;;;11.90;99.90;;;;;;4940882;29;20202;-77
2022/09/17 03:23:31;;;;;;;8.33;2.97;;;11.80;99.90;;;;;;4936992;29;20209;-78
2022/09/17 03:25:59;;;;;;;10.73;2.97;;;11.80;99.90;;;;;;4959662;28;20194;-77
2022/09/17 03:28:27;;;;;;;9.73;2.47;;;11.80;99.90;;;;;;4937908;29;20201;-77
2022/09/17 03:30:54;;;;;;;9.03;2.63;;;11.70;99.90;;;;;;4940306;29;20233;-77
2022/09/17 03:33:22;;;;;;;7.77;2.87;;;11.60;99.90;;;;;;4938195;29;20205;-77
2022/09/17 03:35:49;;;;;;;7.20;1.80;;;11.70;99.90;;;;;;4937049;29;20205;-78
2022/09/17 03:38:18;;;;;;;6.07;2.60;;;11.70;99.90;;;;;;4957593;28;20197;-77
2022/09/17 03:40:57;;;;;;;8.00;2.37;;;11.70;99.90;;;;;;4956832;23;20222;-84
2022/09/17 03:43:25;;;;;;;8.60;2.13;;;11.70;99.90;;;;;;4954765;28;20201;-84
2022/09/17 03:45:53;;;;;;;9.27;2.53;;;11.60;99.90;;;;;;4933799;29;20218;-84
2022/09/17 03:48:20;;;;;;;7.47;2.57;;;11.70;99.90;;;;;;4925629;29;20198;-84
2022/09/17 03:50:48;;;;;;;10.03;2.60;;;11.60;99.90;;;;;;4934316;29;20745;-84
2022/09/17 03:53:16;;;;;;;8.33;2.60;;;11.60;99.90;;;;;;4935350;29;20221;-84
2022/09/17 03:55:45;;;;;;;9.47;2.97;;;11.50;99.90;;;;;;4939751;29;20681;-84
2022/09/17 03:58:12;;;;;;;7.57;2.43;;;11.60;99.90;;;;;;4933821;29;20226;-84
2022/09/17 04:00:40;;;;;;;8.27;2.23;;;11.60;99.90;;;;;;4934719;29;20215;-80
2022/09/17 04:03:07;;;;;;;6.97;2.10;;;11.50;99.90;;;;;;4933704;29;20202;-80
2022/09/17 04:05:35;;;;;;;9.90;2.50;;;11.50;99.90;;;;;;4939714;29;20212;-80
2022/09/17 04:08:02;;;;;;;6.43;2.30;;;11.50;99.90;;;;;;4937052;29;20206;-80
2022/09/17 04:10:30;;;;;;;6.37;2.43;;;11.50;99.90;;;;;;4935044;29;20214;-80
2022/09/17 04:12:59;;;;;;;7.33;2.30;;;11.60;99.90;;;;;;4939850;29;20690;-80
2022/09/17 04:15:26;;;;;;;6.00;2.03;;;11.60;99.90;;;;;;4938867;29;20205;-80
2022/09/17 04:17:57;;;;;;;9.87;2.40;;;11.50;99.90;;;;;;4935439;29;20229;-80
2022/09/17 04:20:25;;;;;;;5.97;1.60;;;11.50;99.90;;;;;;4934821;29;20228;-80
2022/09/17 04:22:52;;;;;;;6.97;1.90;;;11.50;99.90;;;;;;4935177;29;20206;-80
2022/09/17 04:25:20;;;;;;;7.07;2.17;;;11.50;99.90;;;;;;4934128;29;20591;-80
2022/09/17 04:27:47;;;;;;;7.07;1.80;;;11.50;99.90;;;;;;4935247;29;20206;-80
2022/09/17 04:30:17;;;;;;;6.67;2.27;;;11.50;99.90;;;;;;4934963;29;20218;-80
2022/09/17 04:32:45;;;;;;;7.40;2.20;;;11.50;99.90;;;;;;4936943;29;20209;-79
2022/09/17 04:35:13;;;;;;;7.27;2.10;;;11.50;99.90;;;;;;4933522;29;20214;-80
2022/09/17 04:37:41;;;;;;;6.57;2.00;;;11.50;99.90;;;;;;4951047;29;20202;-80
2022/09/17 04:40:09;;;;;;;6.70;1.60;;;11.50;99.90;;;;;;4935991;29;20226;-80
2022/09/17 04:42:37;;;;;;;6.03;1.87;;;11.50;99.90;;;;;;4938127;29;20201;-80
2022/09/17 04:45:05;;;;;;;12.20;2.03;;;11.50;99.90;;;;;;4933150;29;20202;-80
2022/09/17 04:47:34;;;;;;;5.17;2.30;;;11.50;99.90;;;;;;4933708;29;20191;-80
2022/09/17 04:50:01;;;;;;;11.00;1.90;;;11.50;99.90;;;;;;4935716;29;20722;-79
2022/09/17 04:52:29;;;;;;;6.60;2.20;;;11.60;99.90;;;;;;4934503;29;20202;-80
2022/09/17 04:54:56;;;;;;;6.00;1.40;;;11.60;99.90;;;;;;4940963;29;20197;-80
2022/09/17 04:57:25;;;;;;;7.23;1.90;;;11.70;99.90;;;;;;4936305;29;20214;-79
2022/09/17 04:59:52;;;;;;;11.63;2.17;;;11.60;99.90;;;;;;4932673;29;20230;-80
2022/09/17 05:02:19;;;;;;;6.17;1.70;;;11.60;99.90;;;;;;4932717;29;20689;-79
2022/09/17 05:04:49;;;;;;;10.13;2.00;;;11.60;99.90;;;;;;4933486;29;20209;-80
2022/09/17 05:07:17;;;;;;;6.83;2.17;;;11.60;99.90;;;;;;4935746;29;20199;-80
2022/09/17 05:09:44;;;;;;;6.00;1.80;;;11.60;99.90;;;;;;4932403;29;20590;-80
2022/09/17 05:12:12;;;;;;;5.77;2.17;;;11.60;99.90;;;;;;4928479;29;20214;-80
2022/09/17 05:14:39;;;;;;;5.23;1.77;;;11.70;99.90;;;;;;4930669;29;20214;-80
2022/09/17 05:17:06;;;;;;;6.70;1.87;;;11.70;99.90;;;;;;4938608;29;20219;-80
2022/09/17 05:19:34;;;;;;;5.97;1.70;;;11.60;99.90;;;;;;4933483;29;20217;-79
2022/09/17 05:22:03;;;;;;;9.10;1.80;;;11.60;99.90;;;;;;4937295;29;20202;-80
2022/09/17 05:24:31;;;;;;;7.53;1.77;;;11.50;99.90;;;;;;4934268;29;20199;-80
2022/09/17 05:27:00;;;;;;;5.47;1.80;;;11.60;99.90;;;;;;4935870;29;20198;-79
2022/09/17 05:29:28;;;;;;;6.67;1.40;;;11.50;99.90;;;;;;4933006;29;20202;-80
2022/09/17 05:31:56;;;;;;;3.17;1.27;;;11.50;99.90;;;;;;4936876;29;20295;-79
2022/09/17 05:34:23;;;;;;;6.33;2.13;;;11.50;99.90;;;;;;4934630;29;20202;-80
2022/09/17 05:36:51;;;;;;;7.47;1.53;;;11.50;99.90;;;;;;4938070;29;20205;-80
2022/09/17 05:39:21;;;;;;;5.37;1.40;;;11.60;99.90;;;;;;4933494;29;20205;-80
2022/09/17 05:41:48;;;;;;;9.30;1.83;;;11.60;99.90;;;;;;4939449;29;20202;-80
2022/09/17 05:44:16;;;;;;;5.63;1.80;;;11.60;99.90;;;;;;4939926;29;20215;-80
2022/09/17 05:46:44;;;;;;;5.93;1.20;;;11.50;99.90;;;;;;4934409;29;20194;-80
2022/09/17 05:49:12;;;;;;;6.50;1.87;;;11.60;99.90;;;;;;4934988;29;20206;-80
2022/09/17 05:51:39;;;;;;;7.63;1.67;;;11.70;99.90;;;;;;4934307;29;20221;-80
2022/09/17 05:54:07;;;;;;;7.70;2.10;;;11.70;99.90;;;;;;4933977;29;20211;-80
2022/09/17 05:56:36;;;;;;;5.20;1.40;;;11.70;99.90;;;;;;4936570;29;20207;-80
2022/09/17 05:59:03;;;;;;;4.13;1.73;;;11.60;99.90;;;;;;4933478;29;20708;-80
2022/09/17 06:01:31;;;;;;;4.80;1.23;;;11.60;99.90;;;;;;4937914;29;20229;-80
2022/09/17 06:03:58;;;;;;;6.47;1.60;;;11.70;99.90;;;;;;4934128;29;20561;-80
2022/09/17 06:06:29;;;;;;;5.20;1.63;;;11.70;99.90;;;;;;4949814;28;20215;-80
2022/09/17 06:08:59;;;;;;;8.03;1.40;;;11.70;99.90;;;;;;4933091;29;20214;-80
2022/09/17 06:11:27;;;;;;;5.60;1.70;;;11.70;99.90;;;;;;4933824;29;20229;-79
2022/09/17 06:13:58;;;;;;;10.60;1.70;;;11.70;99.90;;;;;;4947202;28;20205;-80
2022/09/17 06:16:25;;;;;;;8.30;2.20;;;11.70;99.90;;;;;;4937013;29;20203;-80
2022/09/17 06:18:53;;;;;;;5.03;1.23;;;11.70;99.90;;;;;;4944025;29;20229;-80
2022/09/17 06:21:21;;;;;;;9.80;2.83;;;11.60;99.90;;;;;;4938775;29;20218;-79
2022/09/17 06:23:49;;;;;;;3.60;1.60;;;11.60;99.90;;;;;;4937701;29;20218;-80
2022/09/17 06:26:17;;;;;;;7.50;1.70;;;11.60;99.90;;;;;;4937944;29;20205;-80
2022/09/17 06:28:45;;;;;;;7.13;2.33;;;11.50;99.90;;;;;;4936409;29;20565;-80
2022/09/17 06:31:14;;;;;;;4.77;1.53;;;11.60;99.90;;;;;;4949991;29;20312;-80
2022/09/17 06:33:41;;;;;;;5.73;1.60;;;11.60;99.90;;;;;;4936354;29;20203;-79
2022/09/17 06:36:11;;;;;;;7.20;2.07;;;11.50;99.90;;;;;;4937475;29;20195;-79
2022/09/17 06:38:38;;;;;;;6.13;1.63;;;11.60;99.90;;;;;;4939401;29;20729;-80
2022/09/17 06:41:06;;;;;;;6.80;1.77;;;11.60;99.90;;;;;;4935895;29;20592;-80
2022/09/17 06:43:33;;;;;;;8.63;2.07;;;11.60;99.90;;;;;;4947677;29;20201;-80
2022/09/17 06:46:04;;;;;;;7.77;1.57;;;11.60;99.90;;;;;;4935942;29;20207;-79
2022/09/17 06:48:35;;;;;;;7.93;1.57;;;11.60;99.90;;;;;;4935848;29;20209;-79
2022/09/17 06:51:03;;;;;;;3.67;1.53;;;11.60;99.90;;;;;;4935612;29;20230;-80
2022/09/17 06:53:31;;;;;;;7.03;1.87;;;11.60;99.90;;;;;;4937461;29;20209;-79
2022/09/17 06:56:00;;;;;;;4.40;1.57;;;11.50;99.90;;;;;;4939393;29;20275;-80
2022/09/17 06:58:29;;;;;;;6.00;1.50;;;11.50;99.90;;;;;;4935643;29;20214;-81
2022/09/17 07:00:59;;;;;;;5.33;1.13;;;11.60;99.90;;;;;;4938431;29;20218;-83
2022/09/17 07:03:27;;;;;;;7.73;1.50;;;11.90;99.90;;;;;;4936306;29;20211;-84
2022/09/17 07:05:58;;;;;;;5.80;1.47;;;12.00;99.90;;;;;;4935448;29;20214;-82
2022/09/17 07:08:26;;;;;;;3.83;1.33;;;11.90;99.90;;;;;;4938183;29;20209;-82
2022/09/17 07:10:56;;;;;;;4.60;1.20;;;11.90;99.90;;;;;;4936101;29;20230;-82
2022/09/17 07:13:24;;;;;;;6.07;1.57;;;11.80;99.90;;;;;;4935414;29;20199;-82
2022/09/17 07:15:55;;;;;;;5.37;1.20;;;11.90;99.90;;;;;;4937388;29;20214;-82
2022/09/17 07:18:23;;;;;;;3.13;1.33;;;11.90;99.90;;;;;;4951478;29;20218;-82
2022/09/17 07:20:54;;;;;;;6.70;1.73;;;11.80;99.90;;;;;;4935709;29;20691;-82
2022/09/17 07:23:25;;;;;;;5.07;1.40;;;11.80;99.90;;;;;;4935300;29;20202;-82
2022/09/17 07:25:53;;;;;;;6.37;1.63;;;11.80;99.90;;;;;;4935948;29;20202;-82
2022/09/17 07:28:21;;;;;;;7.90;2.07;;;11.80;99.90;;;;;;4936553;29;20202;-82
2022/09/17 07:30:49;;;;;;;8.90;2.10;;;12.00;99.90;;;;;;4936334;29;20233;-82
2022/09/17 07:33:18;;;;;;;7.37;1.50;;;12.00;99.90;;;;;;4937362;29;20210;-82
2022/09/17 07:35:53;;;;;;;7.63;1.70;;;12.20;99.90;;;;;;4937864;29;20187;-82
2022/09/17 07:38:21;;;;;;;4.67;1.53;;;12.20;99.90;;;;;;4938263;29;20210;-82
2022/09/17 07:41:01;;;;;;;6.53;1.90;;;12.40;99.90;;;;;;4936237;29;20626;-82
2022/09/17 07:43:30;;;;;;;7.57;2.47;;;12.30;99.90;;;;;;4936468;29;20198;-82
2022/09/17 07:45:59;;;;;;;7.77;2.20;;;12.30;99.90;;;;;;4940377;29;20217;-82
2022/09/17 07:48:27;;;;;;;5.10;1.40;;;12.30;99.90;;;;;;4938463;29;20198;-82
2022/09/17 07:50:55;;;;;;;9.10;2.73;;;12.40;99.90;;;;;;4938824;29;20222;-82
2022/09/17 07:53:23;;;;;;;4.70;1.80;;;12.50;99.90;;;;;;4939162;29;20201;-81
2022/09/17 07:55:54;;;;;;;8.23;1.70;;;12.50;99.90;;;;;;4933385;29;20203;-83
2022/09/17 07:58:24;;;;;;;4.47;1.40;;;12.60;99.90;;;;;;4935651;29;20229;-82
2022/09/17 08:00:52;;;;;;;4.93;1.20;;;12.70;99.90;;;;;;4937580;29;20229;-82
2022/09/17 08:03:19;;;;;;;5.50;1.83;;;12.70;99.90;;;;;;4936175;29;20209;-82
2022/09/17 08:05:47;;;;;;;6.77;1.83;;;12.70;99.90;;;;;;4936401;29;20198;-82
2022/09/17 08:08:14;;;;;;;6.57;1.37;;;12.70;99.90;;;;;;4937140;29;20570;-82
2022/09/17 08:10:42;;;;;;;6.63;1.57;;;12.70;99.90;;;;;;4935171;29;20233;-82
2022/09/17 08:13:09;;;;;;;5.10;1.63;;;12.80;99.90;;;;;;4934465;29;20202;-81
2022/09/17 08:15:38;;;;;;;4.40;1.50;;;13.00;99.90;;;;;;4934299;29;20214;-82
2022/09/17 08:18:05;;;;;;;6.25;1.67;;;13.10;99.90;;;;;;4931950;29;20214;-81
2022/09/17 08:20:34;;;;;;;4.87;1.33;;;13.10;99.90;;;;;;4932124;29;20590;-82
2022/09/17 08:23:01;;;;;;;4.28;1.30;;;13.20;99.90;;;;;;4916795;29;20210;-82
2022/09/17 08:25:28;;;;;;;3.15;0.98;;;13.00;99.90;;;;;;4916183;29;20207;-82
2022/09/17 08:27:56;;;;;;;7.15;1.40;;;13.10;99.90;;;;;;4922601;29;20592;-82
2022/09/17 08:30:24;;;;;;;6.07;1.10;;;13.10;99.90;;;;;;4936242;29;20229;-82
2022/09/17 08:32:55;;;;;;;4.57;1.37;;;13.20;99.90;;;;;;4934755;29;20205;-82
2022/09/17 08:35:25;;;;;;;6.10;1.97;;;13.20;99.90;;;;;;4935396;29;20199;-82
2022/09/17 08:37:55;;;;;;;7.00;2.08;;;13.20;99.90;;;;;;4934928;29;20202;-82
2022/09/17 08:40:23;;;;;;;3.50;1.10;;;13.20;99.90;;;;;;4935020;29;20233;-82
2022/09/17 08:42:58;;;;;;;3.95;1.10;;;13.10;99.90;;;;;;4936478;29;20190;-82
2022/09/17 08:45:25;;;;;;;4.50;1.10;;;13.10;99.90;;;;;;4935282;29;20201;-83
2022/09/17 08:48:01;;;;;;;3.60;0.93;;;13.30;99.90;;;;;;4935353;29;20206;-82
2022/09/17 08:50:32;;;;;;;1.75;0.82;;;13.40;99.90;;;;;;4937135;29;20225;-82
2022/09/17 08:53:16;;;;;;;3.10;1.30;;;13.40;99.90;;;;;;4936907;29;20216;-82
2022/09/17 08:55:46;;;;;;;2.25;0.80;;;13.40;99.90;;;;;;4935260;29;20198;-82
2022/09/17 08:58:41;;;;;;;7.65;1.40;;;13.40;99.90;;;;;;4935633;29;20210;-82
2022/09/17 09:01:21;;;;;;;4.38;1.10;;;13.40;99.90;;;;;;4935370;29;20211;-82
2022/09/17 09:04:07;;;;;;;4.18;1.30;;;13.50;99.90;;;;;;4936591;29;20209;-82
2022/09/17 09:06:41;;;;;;;3.67;1.15;;;13.70;99.90;;;;;;4936151;29;20640;-82
2022/09/17 09:09:14;;;;;;;3.72;1.20;;;13.60;99.90;;;;;;4936759;29;20213;-82
2022/09/17 09:11:43;;;;;;;6.63;1.60;;;13.70;99.90;;;;;;4937615;29;20222;-82
2022/09/17 09:14:18;;;;;;;2.50;1.10;;;13.80;99.90;;;;;;4951959;29;20206;-82
2022/09/17 09:16:47;;;;;;;4.45;2.03;;;13.70;99.90;;;;;;4936903;29;20199;-82
2022/09/17 09:19:22;;;;;;;4.32;1.30;;;13.70;99.90;;;;;;4936396;29;20215;-82
2022/09/17 09:22:01;;;;;;;5.47;1.58;;;13.70;99.90;;;;;;4936449;29;20209;-82
2022/09/17 09:24:39;;;;;;;4.53;1.20;;;13.90;99.90;;;;;;4936880;29;20213;-82
2022/09/17 09:27:17;;;;;;;4.15;1.95;;;14.00;99.90;;;;;;4934268;29;20670;-81
2022/09/17 09:29:56;;;;;;;4.95;1.30;;;14.00;99.90;;;;;;4935262;29;20222;-82
2022/09/17 09:32:51;;;;;;;2.60;0.80;;;14.00;99.90;;;;;;4936245;29;20213;-82
2022/09/17 09:35:22;;;;;;;5.03;0.80;;;14.00;99.90;;;;;;4936281;29;20205;-83
2022/09/17 09:37:57;;;;;;;5.10;0.98;;;14.20;99.90;;;;;;4935192;29;20217;-82
2022/09/17 09:40:40;;;;;;;1.88;0.65;;;14.20;99.90;;;;;;4936291;29;20233;-82
2022/09/17 09:43:17;;;;;;;4.00;0.95;;;14.20;99.90;;;;;;4935958;29;20210;-82
2022/09/17 09:46:08;;;;;;;2.50;0.95;;;14.30;99.90;;;;;;4933287;29;20206;-82
2022/09/17 09:48:44;;;;;;;2.25;1.02;;;14.30;99.90;;;;;;4951643;28;20225;-81
2022/09/17 09:51:26;;;;;;;2.58;0.85;;;14.10;99.90;;;;;;4937541;29;20229;-82
2022/09/17 09:54:12;;;;;;;4.30;1.27;;;14.30;99.90;;;;;;4935049;29;20221;-82
2022/09/17 09:56:51;;;;;;;1.90;0.57;;;14.20;99.90;;;;;;4940300;29;20208;-81
2022/09/17 09:59:19;;;;;;;4.85;0.73;;;14.30;99.90;;;;;;4939604;29;20214;-82
2022/09/17 10:01:47;;;;;;;2.92;0.60;;;14.30;99.80;;;;;;4938527;29;20202;-82
2022/09/17 10:04:21;;;;;;;3.60;0.60;;;14.20;99.50;;;;;;4938226;29;20207;-81
2022/09/17 10:06:52;;;;;;;2.70;0.68;;;14.30;99.60;;;;;;4943159;29;20206;-82
2022/09/17 10:09:21;;;;;;;2.60;0.60;;;14.60;99.90;;;;;;4940884;29;20213;-81
2022/09/17 10:12:01;;;;;;;2.38;0.50;;;14.70;99.50;;;;;;4936854;29;20214;-82
2022/09/17 10:14:30;;;;;;;1.73;0.50;;;14.40;97.40;;;;;;4959579;28;20201;-82
2022/09/17 10:17:19;;;;;;;3.97;0.70;;;14.50;97.60;;;;;;4939501;29;20218;-82
2022/09/17 10:20:09;;;;;;;4.05;0.65;;;14.70;97.00;;;;;;4948967;29;20233;-82
2022/09/17 10:22:39;;;;;;;1.98;0.60;;;14.80;97.50;;;;;;4937511;29;20213;-81
2022/09/17 10:25:20;;;;;;;2.03;0.68;;;14.90;96.20;;;;;;4946062;29;20217;-81
2022/09/17 10:27:49;;;;;;;2.97;0.63;;;15.00;96.50;;;;;;4944685;29;20194;-82
2022/09/17 10:30:18;;;;;;;2.65;0.60;;;15.00;95.90;;;;;;4943489;29;20234;-82
2022/09/17 10:33:11;;;;;;;2.05;0.52;;;14.90;95.70;;;;;;4934762;29;20211;-82
2022/09/17 10:35:39;;;;;;;1.17;0.40;;;15.00;95.60;;;;;;4940914;29;20206;-81
2022/09/17 10:38:31;;;;;;;2.65;0.40;;;14.90;95.30;;;;;;4942573;29;20202;-82
2022/09/17 10:41:14;;;;;;;2.83;0.45;;;15.00;95.10;;;;;;4938841;29;20269;-79
2022/09/17 10:43:41;;;;;;;4.55;0.68;;;15.00;95.90;;;;;;4942125;29;20671;-83
2022/09/17 10:46:14;;;;;;;2.03;0.70;;;14.80;96.70;;;;;;4930814;29;20203;-80
2022/09/17 10:48:45;;;;;;;1.77;0.73;;;14.50;99.90;;;;;;4935853;29;20666;-82
2022/09/17 10:51:22;;;;;;;1.35;0.40;;;14.10;99.90;;;;;;4935840;29;20717;-82
2022/09/17 10:54:08;;;;;;;2.33;0.65;;;14.00;99.90;;;;;;4936724;29;20202;-82
2022/09/17 10:56:40;;;;;;;3.58;0.75;;;13.90;99.90;;;;;;4937065;29;20210;-82
2022/09/17 10:59:31;;;;;;;0.90;0.47;;;14.00;99.90;;;;;;4936093;29;20190;-82
2022/09/17 11:02:15;;;;;;;2.25;0.40;;;14.30;99.90;;;;;;4938208;29;20202;-82
2022/09/17 11:04:51;;;;;;;1.83;0.40;;;14.70;99.90;;;;;;4929531;29;20203;-82
2022/09/17 11:07:42;;;;;;;2.58;0.30;;;14.90;99.90;;;;;;4934534;29;20211;-83
2022/09/17 11:10:23;;;;;;;1.95;0.60;;;14.80;99.90;;;;;;4950864;29;20592;-82
2022/09/17 11:13:06;;;;;;;2.45;0.50;;;14.70;99.90;;;;;;4942416;29;20198;-82
2022/09/17 11:15:47;;;;;;;2.05;0.70;;;14.60;99.90;;;;;;4937288;29;20205;-81
2022/09/17 11:18:39;;;;;;;1.70;0.50;;;15.00;99.90;;;;;;4936970;29;20210;-82
2022/09/17 11:21:29;;;;;;;3.38;0.50;;;15.00;99.90;;;;;;4948348;29;20218;-82
2022/09/17 11:24:51;;;;;;;4.18;0.70;;;14.70;99.90;;;;;;4937862;29;20566;-82
2022/09/17 11:27:45;;;;;;;2.80;0.40;;;14.00;99.90;;;;;;4933384;29;20203;-82
2022/09/17 11:30:17;;;;;;;1.38;0.60;;;14.00;99.90;;;;;;4917074;29;20548;-80
2022/09/17 11:33:35;;;;;;;2.35;0.40;;;13.80;99.90;;;;;;4925973;29;20217;-82
2022/09/17 11:36:11;;;;;;;0.32;0.20;;;14.00;99.90;;;;;;4858523;29;20216;-82
2022/09/17 11:38:42;;;;;;;2.03;0.30;;;14.30;99.90;;;;;;4839407;29;20669;-82
2022/09/17 11:41:13;;;;;;;0.60;0.40;;;14.40;99.90;;;;;;4882689;29;20237;-82
2022/09/17 11:43:47;;;;;;;1.33;0.50;;;14.30;99.90;;;;;;4930386;29;20245;-82
2022/09/17 11:46:19;;;;;;;0.55;0.30;;;14.70;99.90;;;;;;4947740;28;20202;-82
2022/09/17 11:48:52;;;;;;;2.30;0.50;;;15.00;99.90;;;;;;4932029;29;20202;-81
2022/09/17 11:51:30;;;;;;;1.95;0.50;;;14.80;99.90;;;;;;4934635;29;20224;-82
2022/09/17 11:54:02;;;;;;;0.90;0.35;;;15.10;99.90;;;;;;4934562;29;20669;-82
2022/09/17 11:56:35;;;;;;;0.85;0.50;;;14.90;99.90;;;;;;4940450;29;20205;-82
2022/09/17 11:59:11;;;;;;;3.03;1.10;;;15.10;99.90;;;;;;4936486;29;20198;-82
2022/09/17 12:01:45;;;;;;;1.60;0.70;;;15.40;99.90;;;;;;4935622;29;20209;-82
2022/09/17 12:04:35;;;;;;;1.35;0.52;;;15.70;99.60;;;;;;4935559;29;20193;-81
2022/09/17 12:07:14;;;;;;;0.40;0.30;;;16.00;99.80;;;;;;4939995;29;20197;-82
2022/09/17 12:09:44;;;;;;;2.17;0.68;;;15.70;98.30;;;;;;4941107;28;20217;-81
2022/09/17 12:12:17;;;;;;;2.05;0.50;;;15.90;97.50;;;;;;4936446;29;20209;-82
2022/09/17 12:14:50;;;;;;;1.90;0.50;;;16.10;98.30;;;;;;4936917;29;20202;-82
2022/09/17 12:17:23;;;;;;;2.08;0.63;;;15.60;98.80;;;;;;4935193;29;20547;-82
2022/09/17 12:19:57;;;;;;;2.45;0.65;;;15.40;99.90;;;;;;4931453;29;20230;-82
2022/09/17 12:22:28;;;;;;;3.28;0.30;;;15.10;99.90;;;;;;4936291;29;20205;-82
2022/09/17 12:24:56;;;;;;;2.47;0.55;;;14.70;99.90;;;;;;4934571;29;20225;-82
2022/09/17 12:27:34;;;;;;;1.13;0.40;;;14.50;99.90;;;;;;4930191;29;20218;-82
2022/09/17 12:30:09;;;;;;;1.25;0.50;;;14.50;99.90;;;;;;4946854;29;20221;-82
2022/09/17 12:33:13;;;;;;;2.35;0.40;;;14.50;99.90;;;;;;4933378;29;20701;-82
2022/09/17 12:36:23;;;;;;;0.50;0.38;;;14.70;99.90;;;;;;4922517;29;20677;-80
2022/09/17 12:39:22;;;;;;;0.75;0.55;;;14.60;99.90;;;;;;4948499;28;20217;-82
2022/09/17 12:41:58;;;;;;;0.95;0.45;;;14.90;99.90;;;;;;4935376;29;20226;-82
2022/09/17 12:44:38;;;;;;;3.90;0.68;;;14.90;99.90;;;;;;4929938;29;20210;-82
2022/09/17 12:47:26;;;;;;;0.60;0.30;;;15.10;99.90;;;;;;4930097;29;20213;-82
2022/09/17 12:50:13;;;;;;;1.25;0.70;;;15.10;99.90;;;;;;4934538;29;20230;-82
2022/09/17 12:52:53;;;;;;;1.38;0.63;;;15.00;99.90;;;;;;4932280;29;20205;-81
2022/09/17 12:55:42;;;;;;;1.48;0.50;;;14.90;99.90;;;;;;4941037;29;20662;-82
2022/09/17 12:58:25;;;;;;;1.38;0.60;;;15.20;99.90;;;;;;4933986;29;20195;-82
2022/09/17 13:01:00;;;;;;;1.83;0.57;;;15.40;99.90;;;;;;4949625;29;20643;-82
2022/09/17 13:03:34;;;;;;;2.60;0.60;;;15.70;99.90;;;;;;4940670;29;20206;-82
2022/09/17 13:06:26;;;;;;;2.15;0.50;;;15.90;99.90;;;;;;4935508;29;20194;-82
2022/09/17 13:09:32;;;;;;;3.05;0.70;;;15.90;99.90;;;;;;4946810;29;20214;-82
2022/09/17 13:12:21;;;;;;;1.77;0.57;;;15.40;99.90;;;;;;4935308;29;20198;-81
2022/09/17 13:15:18;;;;;;;1.13;0.40;;;14.70;99.90;;;;;;4936654;29;20198;-80
2022/09/17 13:17:54;;;;;;;4.38;0.77;;;14.90;99.90;;;;;;4933688;29;20198;-82